Time;durP1;ratioP1;P1;durP2;ratioP2;P2;SDS_P1;SDS_P2;PMS_P1;PMS_P2;Temp;Humidity;BMP_temperature;BMP_pressure;BME280_temperature;BME280_humidity;BME280_pressure;Samples;Min_cycle;Max_cycle;Signal;HPM_P1;HPM_P2
2021/11/28 00:01:14;;;;;;;11.33;8.73;;;2.70;99.90;;;3.19;100.00;98127.84;5032185;28;20277;-77
2021/11/28 00:03:43;;;;;;;10.30;9.17;;;2.70;99.90;;;3.31;100.00;98131.38;5035217;28;20238;-76
2021/11/28 00:06:18;;;;;;;9.60;8.57;;;2.70;99.90;;;3.26;100.00;98123.25;5036163;28;20281;-76
2021/11/28 00:11:46;;;;;;;9.53;8.10;;;2.60;99.90;;;3.15;100.00;98138.09;5012601;28;20214;-75
2021/11/28 00:14:15;;;;;;;9.70;8.57;;;2.60;99.90;;;3.08;100.00;98144.56;5035563;28;20751;-76
2021/11/28 00:16:44;;;;;;;10.50;8.60;;;2.50;99.90;;;3.19;100.00;98143.78;5024259;28;20215;-76
2021/11/28 00:19:12;;;;;;;8.93;7.93;;;2.50;99.90;;;3.00;100.00;98147.47;5015453;28;20277;-75
2021/11/28 00:21:40;;;;;;;9.73;7.77;;;2.50;99.90;;;2.96;100.00;98141.78;5015971;28;20211;-78
2021/11/28 00:24:09;;;;;;;9.93;8.40;;;2.50;99.90;;;2.90;100.00;98140.03;5017806;28;20679;-76
2021/11/28 00:26:37;;;;;;;10.37;8.07;;;2.40;99.90;;;2.92;100.00;98142.47;5015778;28;20290;-74
2021/11/28 00:29:08;;;;;;;11.93;9.10;;;2.40;99.90;;;2.92;100.00;98137.97;5015098;28;20245;-78
2021/11/28 00:31:37;;;;;;;11.33;9.27;;;2.40;99.90;;;2.84;100.00;98146.22;5015565;28;20757;-76
2021/11/28 00:34:05;;;;;;;11.60;9.00;;;2.30;99.90;;;2.81;100.00;98146.66;5015765;28;20203;-74
2021/11/28 00:36:34;;;;;;;10.53;8.20;;;2.20;99.90;;;2.91;100.00;98151.47;5015537;28;20649;-76
2021/11/28 00:39:02;;;;;;;9.50;7.90;;;2.20;99.90;;;2.80;100.00;98145.03;5015639;28;20282;-76
2021/11/28 00:41:30;;;;;;;8.27;7.43;;;2.20;99.90;;;2.80;100.00;98152.19;5015565;28;20298;-76
2021/11/28 00:43:59;;;;;;;11.57;8.73;;;2.20;99.90;;;2.83;100.00;98152.56;5015278;28;20314;-75
2021/11/28 00:46:28;;;;;;;8.90;8.00;;;2.10;99.90;;;2.85;100.00;98155.00;5015299;28;20245;-75
2021/11/28 00:48:58;;;;;;;9.70;7.97;;;2.20;99.90;;;2.76;100.00;98145.72;5014956;28;20213;-77
2021/11/28 00:51:47;;;;;;;10.23;8.33;;;2.10;99.90;;;2.83;100.00;98149.91;5015223;28;20297;-75
2021/11/28 00:54:17;;;;;;;11.33;8.60;;;2.10;99.90;;;2.88;100.00;98157.22;5014961;28;20761;-75
2021/11/28 00:56:46;;;;;;;11.93;9.40;;;2.10;99.90;;;2.70;100.00;98157.19;5014792;28;20632;-77
2021/11/28 00:59:14;;;;;;;10.60;9.00;;;2.10;99.90;;;2.66;100.00;98154.16;5014945;28;20199;-76
2021/11/28 01:01:44;;;;;;;12.33;8.67;;;2.10;99.90;;;2.76;100.00;98164.31;5013838;28;20225;-76
2021/11/28 01:04:13;;;;;;;10.50;8.03;;;2.10;99.90;;;2.80;100.00;98160.16;5013554;28;20670;-76
2021/11/28 01:06:44;;;;;;;10.23;7.70;;;2.20;99.90;;;2.72;100.00;98163.13;5014658;28;20194;-75
2021/11/28 01:09:13;;;;;;;9.30;7.43;;;2.20;99.90;;;2.82;100.00;98158.94;5014382;28;20707;-75
2021/11/28 01:11:41;;;;;;;8.87;7.57;;;2.20;99.90;;;3.01;100.00;98147.25;5014370;28;20295;-77
2021/11/28 01:14:10;;;;;;;9.37;7.70;;;2.20;99.90;;;3.10;100.00;98151.25;5014586;28;20280;-76
2021/11/28 01:16:43;;;;;;;9.90;7.87;;;2.30;99.90;;;2.79;100.00;98159.34;5014379;28;20206;-76
2021/11/28 01:19:13;;;;;;;8.73;7.53;;;2.20;99.90;;;2.76;100.00;98159.78;5014463;28;20646;-77
2021/11/28 01:21:52;;;;;;;9.87;7.27;;;2.20;99.90;;;2.68;100.00;98164.56;5014503;28;20213;-76
2021/11/28 01:24:20;;;;;;;9.63;7.13;;;2.10;99.90;;;2.66;100.00;98162.13;5014519;28;20353;-75
2021/11/28 01:26:49;;;;;;;9.17;7.97;;;2.10;99.90;;;2.66;100.00;98161.31;5014102;28;20200;-76
2021/11/28 01:29:18;;;;;;;11.40;9.83;;;2.00;99.90;;;2.84;100.00;98159.50;5014147;28;20299;-76
2021/11/28 01:31:46;;;;;;;10.77;9.43;;;2.10;99.90;;;2.69;100.00;98167.00;5014175;28;20289;-76
2021/11/28 01:34:16;;;;;;;10.93;9.43;;;2.10;99.90;;;2.74;100.00;98166.38;5014396;28;20230;-75
2021/11/28 01:36:44;;;;;;;10.53;8.37;;;2.00;99.90;;;2.62;100.00;98170.78;5013949;28;20712;-77
2021/11/28 01:39:13;;;;;;;10.93;8.80;;;2.00;99.90;;;2.63;100.00;98175.03;5013873;28;20625;-75
2021/11/28 01:41:45;;;;;;;10.57;8.90;;;2.00;99.90;;;2.57;100.00;98173.28;5013818;28;20621;-76
2021/11/28 01:44:15;;;;;;;10.60;7.93;;;1.90;99.90;;;2.45;100.00;98175.81;5013942;28;20273;-76
2021/11/28 01:46:45;;;;;;;9.50;8.50;;;1.90;99.90;;;2.59;100.00;98168.56;5025196;28;20757;-75
2021/11/28 01:49:15;;;;;;;10.83;9.03;;;1.90;99.90;;;2.57;100.00;98175.94;5033711;28;20230;-75
2021/11/28 01:51:43;;;;;;;11.77;8.73;;;1.90;99.90;;;2.48;100.00;98172.72;5033757;28;20283;-77
2021/11/28 01:54:13;;;;;;;8.67;7.77;;;1.80;99.90;;;2.50;100.00;98173.34;5033785;28;20272;-75
2021/11/28 01:56:47;;;;;;;8.90;8.00;;;1.80;99.90;;;2.40;100.00;98171.16;5033534;28;20208;-76
2021/11/28 01:59:17;;;;;;;9.73;7.70;;;1.80;99.90;;;2.45;100.00;98165.19;5033582;28;20224;-75
2021/11/28 02:01:47;;;;;;;8.30;7.27;;;1.80;99.90;;;2.40;100.00;98165.84;5033433;28;20218;-77
2021/11/28 02:04:19;;;;;;;9.23;7.40;;;1.80;99.90;;;2.35;100.00;98163.00;5033276;28;20213;-75
2021/11/28 02:06:48;;;;;;;10.23;8.03;;;1.70;99.90;;;2.34;100.00;98161.41;5033470;28;20655;-77
2021/11/28 02:09:17;;;;;;;8.33;7.43;;;1.70;99.90;;;2.22;100.00;98168.44;5033329;28;20259;-76
2021/11/28 02:11:46;;;;;;;9.27;7.67;;;1.70;99.90;;;2.11;100.00;98170.97;5032804;28;20204;-78
2021/11/28 02:14:15;;;;;;;10.10;7.83;;;1.70;99.90;;;2.14;100.00;98158.09;5033389;28;20310;-76
2021/11/28 02:16:43;;;;;;;9.13;8.23;;;1.60;99.90;;;2.28;100.00;98153.47;5022096;28;20238;-75
2021/11/28 02:19:12;;;;;;;9.53;6.93;;;1.60;99.90;;;2.39;100.00;98152.78;5013725;28;20267;-75
2021/11/28 02:21:41;;;;;;;7.87;6.57;;;1.60;99.90;;;2.37;100.00;98153.00;5013634;28;20199;-76
2021/11/28 02:24:10;;;;;;;9.17;6.87;;;1.70;99.90;;;2.36;100.00;98150.56;5011989;28;20787;-74
2021/11/28 02:26:38;;;;;;;13.03;10.77;;;1.70;99.90;;;2.43;100.00;98159.28;5013040;28;20289;-76
2021/11/28 02:29:07;;;;;;;10.27;9.03;;;1.70;99.90;;;2.53;100.00;98156.94;5013082;28;20788;-76
2021/11/28 02:31:35;;;;;;;10.50;8.00;;;1.80;99.90;;;2.44;100.00;98167.03;5013140;28;20241;-76
2021/11/28 02:34:04;;;;;;;9.27;7.97;;;1.80;99.90;;;2.35;100.00;98165.66;5013317;28;20210;-75
2021/11/28 02:36:33;;;;;;;9.20;7.40;;;1.70;99.90;;;2.31;100.00;98161.84;5013166;28;20519;-74
2021/11/28 02:39:02;;;;;;;9.47;8.20;;;1.70;99.90;;;2.38;100.00;98157.25;5013148;28;20229;-74
2021/11/28 02:41:31;;;;;;;9.80;8.80;;;1.70;99.90;;;2.45;100.00;98155.38;5013164;28;20209;-77
2021/11/28 02:43:59;;;;;;;11.87;9.47;;;1.80;99.90;;;2.52;100.00;98154.50;5012757;28;20677;-74
2021/11/28 02:46:27;;;;;;;10.13;9.00;;;1.80;99.90;;;2.53;100.00;98156.94;5021892;28;20224;-76
2021/11/28 02:48:56;;;;;;;10.27;8.77;;;1.80;99.90;;;2.36;100.00;98159.34;5032798;28;20299;-76
2021/11/28 02:51:24;;;;;;;11.07;8.73;;;1.80;99.90;;;2.43;100.00;98160.09;5033935;28;20221;-76
2021/11/28 02:53:52;;;;;;;9.03;7.37;;;1.80;99.90;;;2.39;100.00;98156.25;5033381;28;20767;-75
2021/11/28 02:56:22;;;;;;;9.93;7.03;;;1.80;99.90;;;2.33;100.00;98149.13;5033382;28;20253;-76
2021/11/28 02:58:50;;;;;;;8.67;6.80;;;1.70;99.90;;;2.43;100.00;98151.31;5033511;28;20285;-75
2021/11/28 03:01:22;;;;;;;7.87;6.40;;;1.70;99.90;;;2.35;100.00;98144.41;5033704;28;20301;-75
2021/11/28 03:03:52;;;;;;;7.23;6.10;;;1.70;99.90;;;2.29;100.00;98153.25;5035641;28;20490;-75
2021/11/28 03:06:22;;;;;;;8.83;6.60;;;1.70;99.90;;;2.34;100.00;98145.47;5036437;28;20257;-76
2021/11/28 03:08:50;;;;;;;8.40;6.53;;;1.70;99.90;;;2.40;100.00;98149.09;5037698;28;20205;-74
2021/11/28 03:11:19;;;;;;;10.50;6.77;;;1.70;99.90;;;2.58;100.00;98141.16;5035732;28;20288;-75
2021/11/28 03:13:52;;;;;;;7.97;6.30;;;1.70;99.90;;;2.43;100.00;98130.06;5034274;28;20221;-77
2021/11/28 03:16:23;;;;;;;6.97;6.23;;;1.70;99.90;;;2.34;100.00;98116.25;5026498;28;20230;-75
2021/11/28 03:18:53;;;;;;;9.33;7.20;;;1.60;99.90;;;2.27;100.00;98118.13;5014078;28;20290;-75
2021/11/28 03:21:25;;;;;;;8.60;7.50;;;1.60;99.90;;;2.04;100.00;98123.22;5013938;28;20218;-76
2021/11/28 03:23:57;;;;;;;9.37;7.77;;;1.50;99.90;;;1.90;100.00;98131.47;5014187;28;20269;-76
2021/11/28 03:26:29;;;;;;;9.23;7.13;;;1.40;99.90;;;1.83;100.00;98134.19;5013922;28;20206;-76
2021/11/28 03:29:06;;;;;;;10.23;8.00;;;1.30;99.90;;;2.07;100.00;98138.72;5013660;28;20329;-75
2021/11/28 03:31:39;;;;;;;9.17;7.03;;;1.30;99.90;;;2.09;100.00;98136.69;5013805;28;20635;-75
2021/11/28 03:34:10;;;;;;;9.93;7.10;;;1.40;99.90;;;1.92;100.00;98138.22;5015078;28;20183;-76
2021/11/28 03:36:43;;;;;;;8.23;6.30;;;1.30;99.90;;;1.75;100.00;98150.38;5014906;28;20631;-75
2021/11/28 03:39:14;;;;;;;8.27;6.90;;;1.20;99.90;;;2.03;100.00;98157.97;5018224;28;20678;-76
2021/11/28 03:41:45;;;;;;;8.67;6.50;;;1.30;99.90;;;2.03;100.00;98160.63;5018756;28;20438;-76
2021/11/28 03:44:15;;;;;;;8.53;6.47;;;1.30;99.90;;;2.05;100.00;98159.34;5021399;28;20219;-75
2021/11/28 03:46:43;;;;;;;8.30;7.33;;;1.30;99.90;;;2.04;100.00;98152.44;5021092;28;20250;-76
2021/11/28 03:49:12;;;;;;;8.27;6.30;;;1.30;99.90;;;1.97;100.00;98162.28;5020910;28;20206;-74
2021/11/28 03:51:40;;;;;;;8.30;6.77;;;1.30;99.90;;;1.89;100.00;98157.25;5019575;28;20230;-75
2021/11/28 03:54:09;;;;;;;7.23;6.47;;;1.20;99.90;;;1.91;100.00;98157.03;5016500;28;20199;-75
2021/11/28 03:56:38;;;;;;;7.60;6.80;;;1.20;99.90;;;1.86;100.00;98157.63;5016346;28;20214;-76
2021/11/28 03:59:06;;;;;;;8.03;6.50;;;1.20;99.90;;;1.77;100.00;98172.22;5016922;28;20202;-76
2021/11/28 04:01:36;;;;;;;8.83;6.60;;;1.10;99.90;;;1.68;100.00;98165.50;5017213;28;20199;-75
2021/11/28 04:04:05;;;;;;;9.00;7.23;;;1.10;99.90;;;1.65;100.00;98160.63;5016654;28;20207;-75
2021/11/28 04:06:34;;;;;;;8.10;6.43;;;1.00;99.90;;;1.46;100.00;98161.53;5017042;28;20400;-75
2021/11/28 04:09:03;;;;;;;7.67;6.47;;;1.00;99.90;;;1.43;100.00;98159.31;5016430;28;20616;-76
2021/11/28 04:11:31;;;;;;;8.20;7.20;;;1.00;99.90;;;1.45;100.00;98159.09;5018260;28;20298;-78
2021/11/28 04:14:00;;;;;;;7.60;6.10;;;0.90;99.90;;;1.48;100.00;98158.66;5018962;28;20202;-74
2021/11/28 04:16:28;;;;;;;8.17;6.23;;;0.90;99.90;;;1.43;100.00;98166.44;5018632;28;20625;-78
2021/11/28 04:18:59;;;;;;;7.43;6.47;;;0.90;99.90;;;1.63;100.00;98157.38;5018407;28;20213;-78
2021/11/28 04:21:28;;;;;;;9.03;7.00;;;0.90;99.90;;;1.76;100.00;98154.63;5018937;28;20296;-76
2021/11/28 04:23:56;;;;;;;8.10;6.40;;;1.00;99.90;;;1.78;100.00;98157.91;5018840;28;20198;-77
2021/11/28 04:26:25;;;;;;;7.77;6.60;;;1.00;99.90;;;1.76;100.00;98159.94;5017048;28;20763;-76
2021/11/28 04:28:53;;;;;;;8.70;6.70;;;1.00;99.90;;;1.77;100.00;98153.63;5017096;28;20682;-75
2021/11/28 04:31:21;;;;;;;8.33;7.13;;;1.00;99.90;;;1.62;100.00;98157.59;5017403;28;20617;-77
2021/11/28 04:33:50;;;;;;;10.30;7.33;;;1.00;99.90;;;1.42;100.00;98157.66;5017123;28;20203;-76
2021/11/28 04:36:20;;;;;;;10.03;7.57;;;0.90;99.90;;;1.54;100.00;98163.94;5016728;28;20246;-75
2021/11/28 04:38:48;;;;;;;8.67;7.33;;;0.90;99.90;;;1.67;100.00;98169.22;5016680;28;20230;-75
2021/11/28 04:41:16;;;;;;;9.53;6.60;;;0.90;99.90;;;1.73;100.00;98171.00;5016629;28;20202;-73
2021/11/28 04:43:45;;;;;;;8.70;6.50;;;1.00;99.90;;;1.82;100.00;98179.53;5016907;28;20639;-75
2021/11/28 04:46:13;;;;;;;9.27;7.30;;;1.00;99.90;;;1.75;100.00;98176.09;5016841;28;20222;-76
2021/11/28 04:48:41;;;;;;;10.50;7.53;;;1.10;99.90;;;1.77;100.00;98184.66;5016278;28;20199;-75
2021/11/28 04:51:10;;;;;;;8.47;7.30;;;1.10;99.90;;;1.92;100.00;98175.38;5016657;28;20214;-75
2021/11/28 04:53:39;;;;;;;8.63;6.70;;;1.10;99.90;;;1.80;100.00;98182.41;5016735;28;20229;-76
2021/11/28 04:56:08;;;;;;;9.23;6.60;;;1.10;99.90;;;1.96;100.00;98165.94;5016153;28;20229;-75
2021/11/28 04:58:36;;;;;;;9.23;6.63;;;1.20;99.90;;;1.83;100.00;98163.38;5015944;28;20230;-76
2021/11/28 05:01:05;;;;;;;8.50;6.90;;;1.20;99.90;;;1.68;100.00;98180.59;5015394;28;20206;-76
2021/11/28 05:03:33;;;;;;;9.60;6.63;;;1.10;99.90;;;1.76;100.00;98183.84;5015596;28;20253;-76
2021/11/28 05:06:01;;;;;;;8.70;6.50;;;1.10;99.90;;;1.64;100.00;98190.81;5015372;28;20317;-75
2021/11/28 05:08:31;;;;;;;8.27;6.73;;;1.10;99.90;;;1.60;100.00;98178.22;5016203;28;20207;-76
2021/11/28 05:11:00;;;;;;;7.50;6.43;;;1.00;99.90;;;1.81;100.00;98188.53;5016290;28;20229;-76
2021/11/28 05:13:29;;;;;;;8.17;6.30;;;1.10;99.90;;;1.80;100.00;98193.00;5014884;28;20705;-78
2021/11/28 05:15:57;;;;;;;9.60;6.60;;;1.10;99.90;;;1.75;100.00;98192.84;5015182;28;20286;-75
2021/11/28 05:18:25;;;;;;;11.13;6.87;;;1.10;99.90;;;1.76;100.00;98193.66;5015090;28;20257;-75
2021/11/28 05:20:54;;;;;;;8.43;6.50;;;1.00;99.90;;;1.86;100.00;98200.09;5016004;28;20242;-77
2021/11/28 05:23:22;;;;;;;9.50;6.73;;;1.10;99.90;;;1.70;100.00;98200.63;5015351;28;20206;-75
2021/11/28 05:25:50;;;;;;;9.17;6.23;;;1.10;99.90;;;1.93;100.00;98198.22;5015266;28;20294;-76
2021/11/28 05:28:22;;;;;;;7.93;6.47;;;1.10;99.90;;;2.02;100.00;98198.78;5014697;28;20239;-76
2021/11/28 05:30:51;;;;;;;9.43;6.53;;;1.20;99.90;;;2.13;100.00;98190.16;5015310;28;20234;-76
2021/11/28 05:33:20;;;;;;;10.63;7.77;;;1.30;99.90;;;2.06;100.00;98205.31;5015030;28;20201;-75
2021/11/28 05:35:48;;;;;;;9.93;7.03;;;1.30;99.90;;;2.21;100.00;98198.69;5014852;28;20563;-75
2021/11/28 05:38:16;;;;;;;8.97;6.97;;;1.40;99.90;;;2.28;100.00;98193.31;5014705;28;20290;-76
2021/11/28 05:40:45;;;;;;;9.23;6.70;;;1.50;99.90;;;2.48;100.00;98194.81;5015034;28;20238;-76
2021/11/28 05:43:13;;;;;;;7.93;5.97;;;1.50;99.90;;;2.44;100.00;98195.44;5015632;28;20200;-74
2021/11/28 05:45:42;;;;;;;8.60;6.10;;;1.60;99.90;;;2.51;100.00;98188.22;5014917;28;20206;-78
2021/11/28 05:48:11;;;;;;;11.23;6.57;;;1.70;99.90;;;2.58;100.00;98193.47;5014312;28;20773;-76
2021/11/28 05:50:39;;;;;;;7.03;5.83;;;1.80;99.90;;;2.53;100.00;98191.50;5016666;28;20203;-76
2021/11/28 05:53:07;;;;;;;7.43;6.10;;;1.80;99.90;;;2.47;100.00;98195.81;5016582;28;20312;-74
2021/11/28 05:55:36;;;;;;;7.87;5.77;;;1.80;99.90;;;2.53;100.00;98203.94;5015869;28;20290;-76
2021/11/28 05:58:04;;;;;;;7.53;5.77;;;1.80;99.90;;;2.55;100.00;98207.22;5016114;28;20245;-75
2021/11/28 06:00:33;;;;;;;6.73;5.80;;;1.80;99.90;;;2.58;100.00;98204.94;5015468;28;20290;-76
2021/11/28 06:03:02;;;;;;;7.03;5.50;;;1.80;99.90;;;2.68;100.00;98194.63;5016347;28;20558;-75
2021/11/28 06:05:31;;;;;;;6.77;5.50;;;1.80;99.90;;;2.48;100.00;98207.28;5015823;28;20210;-76
2021/11/28 06:07:59;;;;;;;8.50;6.00;;;1.80;99.90;;;2.36;100.00;98209.00;5015909;28;20349;-76
2021/11/28 06:10:27;;;;;;;8.67;5.47;;;1.70;99.90;;;2.33;100.00;98201.47;5015409;28;20286;-76
2021/11/28 06:12:56;;;;;;;9.80;5.93;;;1.70;99.90;;;2.26;100.00;98203.34;5015980;28;20206;-75
2021/11/28 06:15:24;;;;;;;9.80;6.70;;;1.70;99.90;;;2.34;100.00;98201.25;5015557;28;20924;-76
2021/11/28 06:17:53;;;;;;;8.30;6.00;;;1.70;99.90;;;2.36;100.00;98204.50;5015394;28;20263;-74
2021/11/28 06:20:22;;;;;;;7.40;5.67;;;1.70;99.90;;;2.59;100.00;98200.44;5015446;28;20278;-74
2021/11/28 06:22:52;;;;;;;7.73;5.73;;;1.80;99.90;;;2.63;100.00;98206.94;5015437;28;20289;-77
2021/11/28 06:25:22;;;;;;;9.37;6.30;;;1.80;99.90;;;2.72;100.00;98195.84;5015493;28;20205;-77
2021/11/28 06:28:07;;;;;;;9.67;5.67;;;1.90;99.90;;;2.70;100.00;98205.03;5014671;28;20243;-75
2021/11/28 06:30:36;;;;;;;8.63;6.30;;;1.90;99.90;;;3.04;100.00;98193.88;5014990;28;20378;-74
2021/11/28 06:33:04;;;;;;;7.37;5.70;;;2.00;99.90;;;2.85;100.00;98205.50;5014850;28;20209;-76
2021/11/28 06:35:34;;;;;;;7.67;5.90;;;2.00;99.90;;;2.72;100.00;98201.16;5014288;28;20285;-75
2021/11/28 06:38:02;;;;;;;8.00;5.80;;;1.90;99.90;;;2.81;100.00;98199.03;5013822;28;20203;-75
2021/11/28 06:40:30;;;;;;;7.60;5.80;;;2.00;99.90;;;2.86;100.00;98204.50;5013908;28;20209;-78
2021/11/28 06:42:59;;;;;;;7.60;6.03;;;2.00;99.90;;;2.94;100.00;98201.56;5013015;28;20539;-76
2021/11/28 06:45:27;;;;;;;8.67;6.10;;;2.00;99.90;;;2.94;100.00;98193.56;5013404;28;20209;-76
2021/11/28 06:47:56;;;;;;;7.53;5.90;;;2.10;99.90;;;3.04;100.00;98200.03;5013128;28;20226;-76
2021/11/28 06:50:24;;;;;;;9.17;6.43;;;2.10;99.90;;;3.11;100.00;98200.75;5014372;28;20754;-79
2021/11/28 06:52:53;;;;;;;9.77;6.13;;;2.20;99.90;;;3.15;100.00;98193.13;5013379;28;20525;-77
2021/11/28 06:55:22;;;;;;;9.23;6.30;;;2.20;99.90;;;3.07;100.00;98188.13;5013555;28;20211;-74
2021/11/28 06:57:50;;;;;;;9.83;7.10;;;2.30;99.90;;;3.14;100.00;98188.88;5016984;28;20251;-77
2021/11/28 07:00:19;;;;;;;8.17;7.23;;;2.30;99.90;;;3.10;100.00;98182.34;5018870;28;20290;-75
2021/11/28 07:02:47;;;;;;;8.97;6.70;;;2.30;99.90;;;2.97;100.00;98201.09;5018183;28;20202;-73
2021/11/28 07:05:16;;;;;;;9.97;6.77;;;2.30;99.90;;;3.02;100.00;98193.28;5015415;28;20663;-77
2021/11/28 07:07:45;;;;;;;6.90;6.20;;;2.20;99.90;;;3.05;100.00;98200.81;5013690;28;20219;-78
2021/11/28 07:10:15;;;;;;;9.23;7.00;;;2.30;99.90;;;3.07;100.00;98201.41;5013291;28;20561;-76
2021/11/28 07:12:44;;;;;;;7.83;6.17;;;2.30;99.90;;;3.05;100.00;98203.47;5013109;28;20203;-75
2021/11/28 07:15:13;;;;;;;10.37;6.40;;;2.30;99.90;;;3.09;100.00;98204.66;5013111;28;20232;-76
2021/11/28 07:17:41;;;;;;;8.57;6.90;;;2.40;99.90;;;3.28;100.00;98199.13;5013153;28;20685;-77
2021/11/28 07:20:11;;;;;;;8.73;7.13;;;2.30;99.90;;;3.33;100.00;98203.81;5012732;28;20694;-76
2021/11/28 07:22:39;;;;;;;9.93;6.70;;;2.30;99.90;;;3.35;100.00;98202.53;5013586;28;20629;-76
2021/11/28 07:25:09;;;;;;;7.40;6.07;;;2.30;99.90;;;3.25;100.00;98199.56;5013685;28;20308;-76
2021/11/28 07:27:39;;;;;;;7.67;6.37;;;2.30;99.90;;;3.23;100.00;98200.84;5012954;28;20321;-75
2021/11/28 07:30:08;;;;;;;10.53;6.90;;;2.40;99.90;;;3.19;100.00;98205.78;5013336;28;20217;-75
2021/11/28 07:32:37;;;;;;;9.83;6.57;;;2.40;99.90;;;3.05;100.00;98201.63;5014839;28;20248;-76
2021/11/28 07:35:06;;;;;;;12.77;9.77;;;2.40;99.90;;;3.18;100.00;98200.69;5013836;28;20282;-73
2021/11/28 07:37:34;;;;;;;10.13;9.07;;;2.40;99.90;;;3.03;100.00;98205.53;5013707;28;20213;-75
2021/11/28 07:40:05;;;;;;;8.93;7.80;;;2.30;99.90;;;2.99;100.00;98213.16;5013474;28;20725;-77
2021/11/28 07:42:33;;;;;;;11.23;8.87;;;2.20;99.90;;;2.88;100.00;98202.41;5013022;28;20265;-76
2021/11/28 07:45:03;;;;;;;10.30;8.33;;;2.20;99.90;;;2.81;100.00;98210.44;5013611;28;20210;-76
2021/11/28 07:47:32;;;;;;;9.57;7.53;;;2.20;99.90;;;2.95;100.00;98214.63;5013556;28;20260;-76
2021/11/28 07:50:00;;;;;;;10.37;7.43;;;2.10;99.90;;;2.92;100.00;98219.56;5013247;28;20242;-76
2021/11/28 07:52:29;;;;;;;10.47;8.57;;;2.10;99.90;;;2.79;100.00;98222.34;5012616;28;20508;-75
2021/11/28 07:54:57;;;;;;;11.57;7.40;;;2.10;99.90;;;2.82;100.00;98221.91;5012798;28;20257;-75
2021/11/28 07:57:25;;;;;;;8.10;6.97;;;2.00;99.90;;;2.68;100.00;98225.69;5012852;28;20242;-75
2021/11/28 07:59:54;;;;;;;9.03;6.60;;;1.90;99.90;;;2.58;100.00;98220.06;5012629;28;20245;-75
2021/11/28 08:02:23;;;;;;;9.83;7.30;;;2.00;99.90;;;2.70;100.00;98223.66;5012681;28;20209;-76
2021/11/28 08:04:52;;;;;;;8.63;7.40;;;2.00;99.90;;;2.54;100.00;98216.22;5013019;28;20635;-75
2021/11/28 08:07:21;;;;;;;8.10;7.10;;;1.90;99.90;;;2.50;100.00;98221.94;5012559;28;20238;-76
2021/11/28 08:09:50;;;;;;;9.40;7.80;;;1.90;99.90;;;2.50;100.00;98226.47;5012698;28;20808;-77
2021/11/28 08:12:18;;;;;;;11.73;9.97;;;1.90;99.90;;;2.68;100.00;98223.88;5012622;28;20253;-76
2021/11/28 08:14:46;;;;;;;12.10;10.77;;;1.90;99.90;;;2.60;100.00;98220.66;5012908;28;20206;-76
2021/11/28 08:17:15;;;;;;;12.17;9.73;;;1.90;99.90;;;2.45;100.00;98223.66;5013913;28;20222;-75
2021/11/28 08:19:45;;;;;;;10.83;9.73;;;1.90;99.90;;;2.45;100.00;98224.44;5013905;28;20202;-76
2021/11/28 08:22:13;;;;;;;11.50;9.73;;;1.90;99.90;;;2.46;100.00;98227.91;5014562;28;20282;-77
2021/11/28 08:24:42;;;;;;;12.30;9.90;;;1.90;99.90;;;2.49;100.00;98233.63;5018090;28;20247;-77
2021/11/28 08:27:11;;;;;;;13.30;10.33;;;1.90;99.90;;;2.44;100.00;98229.97;5017410;28;20699;-78
2021/11/28 08:29:40;;;;;;;12.80;9.17;;;1.90;99.90;;;2.41;100.00;98233.06;5016817;28;20296;-77
2021/11/28 08:32:10;;;;;;;10.87;8.80;;;1.90;99.90;;;2.49;100.00;98227.47;5016834;28;20209;-77
2021/11/28 08:34:40;;;;;;;11.33;8.90;;;1.90;99.90;;;2.56;100.00;98230.09;5016420;28;20223;-77
2021/11/28 08:37:10;;;;;;;11.03;9.77;;;1.90;99.90;;;2.49;100.00;98232.78;5015760;28;20210;-78
2021/11/28 08:39:39;;;;;;;11.70;10.13;;;1.90;99.90;;;2.60;100.00;98236.59;5015715;28;20254;-77
2021/11/28 08:42:08;;;;;;;12.10;9.27;;;1.90;99.90;;;2.69;100.00;98237.97;5017336;28;20201;-77
2021/11/28 08:44:38;;;;;;;9.53;8.20;;;2.00;99.90;;;2.59;100.00;98241.09;5016845;28;20230;-80
2021/11/28 08:47:07;;;;;;;10.97;8.10;;;2.00;99.90;;;2.54;100.00;98243.59;5032048;28;20669;-77
2021/11/28 08:49:36;;;;;;;9.23;7.90;;;2.00;99.90;;;2.55;100.00;98250.56;5037030;28;20314;-76
2021/11/28 08:52:05;;;;;;;10.20;8.00;;;2.00;99.90;;;2.66;100.00;98249.00;5038209;28;20230;-79
2021/11/28 08:54:35;;;;;;;10.67;8.67;;;2.10;99.90;;;2.69;100.00;98248.59;5019955;28;20262;-75
2021/11/28 08:57:04;;;;;;;11.40;8.67;;;2.10;99.90;;;2.67;100.00;98243.50;5016985;28;20219;-75
2021/11/28 08:59:32;;;;;;;12.60;9.97;;;2.10;99.90;;;2.75;100.00;98247.72;5016680;28;20226;-78
2021/11/28 09:02:01;;;;;;;12.63;9.67;;;2.10;99.90;;;2.70;100.00;98255.53;5016329;28;20329;-76
2021/11/28 09:04:30;;;;;;;13.70;10.77;;;2.10;99.90;;;2.75;100.00;98258.34;5016111;28;20198;-74
2021/11/28 09:06:58;;;;;;;14.23;9.37;;;2.20;99.90;;;2.75;100.00;98258.34;5015890;28;20424;-77
2021/11/28 09:09:26;;;;;;;13.67;9.87;;;2.20;99.90;;;2.81;100.00;98260.16;5016636;28;20223;-77
2021/11/28 09:11:56;;;;;;;10.70;8.83;;;2.20;99.90;;;2.78;100.00;98263.22;5015740;28;20212;-76
2021/11/28 09:14:26;;;;;;;16.17;12.50;;;2.30;99.90;;;2.92;100.00;98267.41;5015137;28;20250;-76
2021/11/28 09:16:54;;;;;;;11.10;9.90;;;2.30;99.90;;;2.92;100.00;98260.28;5028623;28;20220;-75
2021/11/28 09:19:26;;;;;;;11.30;9.50;;;2.40;99.90;;;3.04;100.00;98263.84;5037212;28;20253;-78
2021/11/28 09:21:55;;;;;;;9.67;8.37;;;2.40;99.90;;;3.23;100.00;98262.81;5037223;28;20218;-77
2021/11/28 09:24:37;;;;;;;9.20;7.37;;;2.50;99.90;;;3.21;100.00;98261.44;5042845;28;20670;-76
2021/11/28 09:27:13;;;;;;;10.07;7.60;;;2.50;99.90;;;3.30;100.00;98258.25;5035461;28;20270;-75
2021/11/28 09:29:45;;;;;;;12.00;7.43;;;2.60;99.90;;;3.31;100.00;98248.44;5034583;28;20284;-76
2021/11/28 09:32:15;;;;;;;9.93;7.80;;;2.70;99.90;;;3.30;100.00;98252.94;5034418;28;20659;-76
2021/11/28 09:34:44;;;;;;;12.37;8.17;;;2.70;99.90;;;3.41;100.00;98249.56;5032795;28;20194;-78
2021/11/28 09:37:13;;;;;;;12.27;8.07;;;2.70;99.90;;;3.50;100.00;98256.19;5033276;28;20285;-76
2021/11/28 09:39:45;;;;;;;10.33;7.57;;;2.70;99.90;;;3.58;100.00;98250.59;5034193;28;20237;-75
2021/11/28 09:42:22;;;;;;;12.43;8.33;;;2.70;99.90;;;3.71;100.00;98239.78;5034254;28;20190;-75
2021/11/28 09:44:51;;;;;;;14.23;8.77;;;2.70;99.90;;;3.62;100.00;98248.28;5034010;28;20218;-76
2021/11/28 09:47:20;;;;;;;13.70;9.23;;;2.80;99.90;;;3.51;100.00;98241.06;5018685;28;20268;-77
2021/11/28 09:49:48;;;;;;;9.73;7.57;;;2.70;99.90;;;3.52;100.00;98246.16;5014353;28;20258;-77
2021/11/28 09:52:21;;;;;;;9.83;7.07;;;2.80;99.90;;;3.53;100.00;98237.16;5014486;28;20205;-76
2021/11/28 09:54:52;;;;;;;8.83;7.43;;;2.80;99.90;;;3.46;100.00;98243.56;5014607;28;20282;-75
2021/11/28 09:57:22;;;;;;;11.47;8.30;;;2.80;99.90;;;3.43;100.00;98244.81;5013834;28;20213;-77
2021/11/28 09:59:54;;;;;;;9.73;7.63;;;2.80;99.90;;;3.77;100.00;98240.75;5014615;28;20675;-77
2021/11/28 10:02:26;;;;;;;8.73;7.57;;;2.80;99.90;;;3.58;100.00;98228.50;5014993;28;20191;-74
2021/11/28 10:04:58;;;;;;;7.93;7.13;;;2.90;99.90;;;3.66;100.00;98238.81;5012830;28;20206;-65
2021/11/28 10:07:27;;;;;;;9.13;6.93;;;2.90;99.90;;;3.59;100.00;98232.75;5013875;28;20236;-68
2021/11/28 10:09:57;;;;;;;8.63;6.97;;;3.00;99.90;;;3.56;100.00;98233.22;5013433;28;20288;-65
2021/11/28 10:12:28;;;;;;;8.63;7.30;;;3.00;99.90;;;3.69;100.00;98225.06;5013491;28;20237;-66
2021/11/28 10:15:00;;;;;;;8.83;6.87;;;3.00;99.90;;;3.71;100.00;98221.16;5013290;28;20619;-62
2021/11/28 10:17:31;;;;;;;9.40;6.30;;;3.10;99.90;;;3.86;100.00;98218.09;5013192;28;20207;-70
2021/11/28 10:20:04;;;;;;;10.17;7.20;;;3.10;99.90;;;3.91;100.00;98220.09;5013261;28;20300;-70
2021/11/28 10:22:32;;;;;;;8.23;6.67;;;3.20;99.90;;;3.84;100.00;98211.38;5013145;28;20231;-69
2021/11/28 10:25:04;;;;;;;8.23;6.87;;;3.20;99.90;;;3.88;100.00;98210.69;5013231;28;20199;-71
2021/11/28 10:27:41;;;;;;;7.87;6.47;;;3.20;99.90;;;3.96;100.00;98215.69;5012881;28;20239;-71
2021/11/28 10:30:14;;;;;;;9.67;7.77;;;3.20;99.90;;;4.12;100.00;98214.25;5012921;28;20331;-67
2021/11/28 10:32:49;;;;;;;9.70;7.13;;;3.30;99.90;;;4.02;100.00;98209.50;5012795;28;20275;-66
2021/11/28 10:35:20;;;;;;;7.80;6.60;;;3.30;99.90;;;4.22;100.00;98210.03;5013103;28;20222;-66